LGPZ/PVK METAR and TAF weather

Enter ICAO airport designator
Station Type Date Time Source
LGPZ METAR 2022/05/24 12:20 UTC NOAA

LGPZ 241220Z 27009KT CAVOK 26/17 Q1012


Station Type Date Time Source
LGPZ Decoded METAR 2022/05/24 12:20 UTC NOAA

Aktion Airport , Greece (LGPZ) 38-37N 020-46E 4M
May 24, 2022 - 08:20 AM EDT / 2022.05.24 1220 UTC
Wind: from the W (270 degrees) at 10 MPH (9 KT):0
Visibility: greater than 7 mile(s):0
Temperature: 78 F (26 C)
Dew Point: 62 F (17 C)
Relative Humidity: 57%
Pressure (altimeter): 29.88 in. Hg (1012 hPa)
ob: LGPZ 241220Z 27009KT CAVOK 26/17 Q1012
cycle: 12

Station Type Date Time Source
LGPZ TAF 2022/05/24 12:13 UTC NOAA

TAF LGPZ 241100Z 2412/2512 VRB05KT 9999 FEW025
TEMPO 2412/2418 27012KT

Example: see airport list